createdAt,value
2018-01-29T00:00:58.259Z,2.00
2018-01-29T00:03:26.556Z,1.55
2018-01-29T00:05:54.064Z,1.67
2018-01-29T00:08:23.600Z,1.95
2018-01-29T00:10:53.042Z,1.92
2018-01-29T00:13:20.599Z,1.60
2018-01-29T00:15:48.121Z,1.85
2018-01-29T00:18:16.522Z,1.85
2018-01-29T00:20:44.797Z,1.92
2018-01-29T00:23:13.061Z,2.30
2018-01-29T00:25:41.362Z,2.00
2018-01-29T00:28:08.859Z,2.20
2018-01-29T00:30:36.592Z,2.20
2018-01-29T00:33:04.101Z,2.37
2018-01-29T00:35:31.595Z,1.77
2018-01-29T00:38:03.228Z,1.98
2018-01-29T00:40:30.724Z,1.75
2018-01-29T00:42:58.244Z,1.95
2018-01-29T00:45:25.761Z,1.75
2018-01-29T00:47:53.287Z,1.75
2018-01-29T00:50:21.547Z,1.67
2018-01-29T00:52:49.069Z,1.65
2018-01-29T00:55:16.558Z,2.40
2018-01-29T00:57:44.060Z,1.80
2018-01-29T01:00:12.506Z,1.70
2018-01-29T01:02:40.001Z,2.28
2018-01-29T01:05:07.526Z,1.90
2018-01-29T01:07:35.804Z,1.77
2018-01-29T01:10:03.355Z,1.90
2018-01-29T01:12:30.850Z,2.00
2018-01-29T01:14:58.380Z,1.90
2018-01-29T01:17:25.867Z,1.40
2018-01-29T01:19:54.332Z,1.75
2018-01-29T01:22:22.589Z,1.70
2018-01-29T01:24:50.079Z,1.62
2018-01-29T01:27:18.366Z,1.83
2018-01-29T01:29:46.810Z,1.50
2018-01-29T01:32:14.322Z,1.50
2018-01-29T01:34:41.812Z,2.15
2018-01-29T01:37:09.324Z,1.80
2018-01-29T01:39:36.837Z,1.62
2018-01-29T01:42:04.350Z,1.37
2018-01-29T01:44:31.852Z,1.87
2018-01-29T01:46:59.376Z,1.70
2018-01-29T01:49:30.764Z,1.40
2018-01-29T01:51:58.272Z,1.60
2018-01-29T01:54:25.801Z,1.33
2018-01-29T01:56:53.296Z,1.60
2018-01-29T01:59:20.844Z,1.27
2018-01-29T02:01:48.329Z,1.50
2018-01-29T02:04:15.860Z,1.95
2018-01-29T02:06:44.123Z,1.60
2018-01-29T02:09:13.426Z,1.48
2018-01-29T02:11:41.682Z,1.65
2018-01-29T02:14:09.188Z,1.52
2018-01-29T02:16:36.700Z,1.62
2018-01-29T02:19:04.205Z,1.80
2018-01-29T02:21:31.751Z,1.85
2018-01-29T02:23:59.246Z,1.52
2018-01-29T02:26:26.771Z,2.00
2018-01-29T02:28:55.039Z,2.03
2018-01-29T02:31:23.320Z,1.85
2018-01-29T02:33:51.581Z,2.05
2018-01-29T02:36:19.081Z,1.95
2018-01-29T02:38:50.080Z,2.03
2018-01-29T02:41:17.571Z,2.30
2018-01-29T02:43:45.086Z,2.12
2018-01-29T02:46:12.571Z,2.10
2018-01-29T02:48:40.856Z,2.53
2018-01-29T02:51:10.121Z,2.60
2018-01-29T02:53:37.630Z,2.30
2018-01-29T02:56:05.126Z,1.92
2018-01-29T02:58:32.636Z,2.03
2018-01-29T03:01:00.916Z,1.70
2018-01-29T03:03:29.182Z,1.67
2018-01-29T03:05:57.469Z,1.20
2018-01-29T03:08:25.726Z,1.70
2018-01-29T03:10:56.673Z,1.20
2018-01-29T03:13:24.941Z,1.23
2018-01-29T03:15:52.458Z,1.37
2018-01-29T03:18:19.958Z,1.30
2018-01-29T03:20:47.468Z,1.65
2018-01-29T03:23:14.961Z,1.10
2018-01-29T03:25:42.460Z,1.20
2018-01-29T03:28:09.996Z,1.60
2018-01-29T03:30:37.505Z,1.27
2018-01-29T03:33:05.013Z,1.70
2018-01-29T03:35:32.521Z,1.55
2018-01-29T03:38:00.044Z,1.33
2018-01-29T03:40:28.352Z,1.33
2018-01-29T03:42:55.899Z,1.65
2018-01-29T03:45:24.159Z,1.50
2018-01-29T03:47:52.425Z,1.50
2018-01-29T03:50:19.945Z,1.20
2018-01-29T03:52:47.484Z,1.50
2018-01-29T03:55:15.741Z,1.30
2018-01-29T03:57:43.230Z,1.45
2018-01-29T04:00:10.740Z,1.27
2018-01-29T04:02:38.224Z,1.35
2018-01-29T04:05:06.498Z,1.10
2018-01-29T04:07:33.996Z,1.65
2018-01-29T04:10:01.497Z,1.40
2018-01-29T04:12:29.002Z,1.80
2018-01-29T04:14:56.499Z,1.58
2018-01-29T04:17:24.021Z,1.60
2018-01-29T04:19:51.515Z,1.30
2018-01-29T04:22:19.037Z,1.40
2018-01-29T04:24:46.527Z,1.52
2018-01-29T04:27:14.027Z,1.62
2018-01-29T04:29:42.275Z,1.20
2018-01-29T04:32:09.756Z,1.55
2018-01-29T04:34:38.025Z,1.52
2018-01-29T04:37:05.516Z,1.70
2018-01-29T04:39:33.015Z,1.23
2018-01-29T04:42:00.503Z,1.10
2018-01-29T04:44:28.005Z,1.60
2018-01-29T04:46:55.496Z,1.87
2018-01-29T04:49:23.008Z,1.42
2018-01-29T04:51:50.488Z,1.37
2018-01-29T04:54:18.218Z,1.60
2018-01-29T04:56:46.466Z,1.58
2018-01-29T04:59:21.276Z,1.87
2018-01-29T05:01:48.770Z,6.50
2018-01-29T05:04:16.270Z,9.60
2018-01-29T05:06:43.774Z,2.50
2018-01-29T05:09:11.276Z,2.58
2018-01-29T05:11:38.835Z,3.22
2018-01-29T05:14:06.331Z,1.87
2018-01-29T05:16:33.846Z,2.00
2018-01-29T05:19:02.160Z,1.37
2018-01-29T05:21:29.700Z,1.67
2018-01-29T05:23:57.210Z,1.17
2018-01-29T05:26:24.712Z,1.90
2018-01-29T05:28:52.255Z,1.37
2018-01-29T05:31:20.515Z,1.25
2018-01-29T05:33:48.055Z,1.40
2018-01-29T05:36:23.066Z,1.55
2018-01-29T05:38:51.301Z,1.42
2018-01-29T05:41:18.794Z,1.77
2018-01-29T05:43:46.944Z,1.45
2018-01-29T05:46:16.071Z,1.75
2018-01-29T05:48:44.545Z,1.60
2018-01-29T05:51:12.886Z,1.65
2018-01-29T05:53:40.421Z,1.50
2018-01-29T05:56:07.992Z,1.40
2018-01-29T05:58:35.532Z,1.80
2018-01-29T06:01:03.081Z,1.70
2018-01-29T06:03:31.391Z,1.50
2018-01-29T06:05:58.922Z,1.30
2018-01-29T06:08:26.454Z,1.40
2018-01-29T06:10:54.008Z,2.12
2018-01-29T06:13:21.562Z,1.10
2018-01-29T06:15:49.121Z,3.12
2018-01-29T06:18:17.444Z,1.80
2018-01-29T06:20:44.950Z,1.50
2018-01-29T06:23:13.236Z,1.20
2018-01-29T06:25:41.501Z,1.65
2018-01-29T06:28:09.037Z,1.60
2018-01-29T06:30:36.523Z,1.30
2018-01-29T06:33:04.820Z,1.95
2018-01-29T06:35:32.320Z,1.95
2018-01-29T06:37:59.837Z,1.55
2018-01-29T06:40:27.433Z,1.70
2018-01-29T06:42:55.734Z,1.75
2018-01-29T06:45:23.313Z,1.33
2018-01-29T06:47:50.867Z,2.12
2018-01-29T06:50:28.544Z,2.20
2018-01-29T06:52:56.052Z,2.30
2018-01-29T06:55:24.340Z,1.40
2018-01-29T06:57:51.908Z,1.77
2018-01-29T07:00:19.454Z,1.60
2018-01-29T07:02:47.077Z,1.42
2018-01-29T07:05:14.697Z,2.53
2018-01-29T07:07:42.223Z,1.42
2018-01-29T07:10:16.916Z,1.77
2018-01-29T07:12:44.443Z,1.55
2018-01-29T07:15:11.951Z,1.75
2018-01-29T07:17:39.476Z,1.33
2018-01-29T07:20:08.995Z,1.60
2018-01-29T07:22:36.575Z,1.80
2018-01-29T07:25:04.092Z,1.42
2018-01-29T07:27:32.386Z,1.30
2018-01-29T07:30:01.833Z,1.60
2018-01-29T07:32:29.371Z,1.70
2018-01-29T07:34:58.923Z,1.30
2018-01-29T07:37:26.462Z,1.20
2018-01-29T07:39:55.656Z,1.30
2018-01-29T07:42:23.161Z,1.35
2018-01-29T07:44:50.691Z,1.20
2018-01-29T07:47:18.966Z,1.40
2018-01-29T07:49:48.193Z,1.17
2018-01-29T07:52:15.700Z,1.30
2018-01-29T07:54:43.233Z,1.25
2018-01-29T07:57:10.770Z,1.20
2018-01-29T07:59:38.293Z,1.20
2018-01-29T08:02:05.790Z,1.10
2018-01-29T08:04:33.305Z,1.60
2018-01-29T08:07:00.854Z,1.10
2018-01-29T08:09:28.412Z,1.10
2018-01-29T08:11:55.939Z,1.40
2018-01-29T08:14:23.465Z,1.08
2018-01-29T08:16:51.001Z,1.00
2018-01-29T08:19:18.521Z,1.75
2018-01-29T08:21:46.077Z,1.10
2018-01-29T08:24:13.602Z,1.10
2018-01-29T08:26:41.885Z,1.17
2018-01-29T08:29:10.185Z,1.27
2018-01-29T08:31:37.717Z,1.10
2018-01-29T08:34:06.101Z,1.10
2018-01-29T08:36:34.376Z,1.30
2018-01-29T08:39:02.678Z,1.00
2018-01-29T08:41:30.189Z,0.90
2018-01-29T08:43:57.734Z,1.42
2018-01-29T08:46:25.257Z,1.05
2018-01-29T08:48:52.761Z,1.20
2018-01-29T08:51:20.291Z,1.10
2018-01-29T08:53:47.801Z,1.00
2018-01-29T08:56:15.328Z,0.95
2018-01-29T08:58:42.836Z,1.10
2018-01-29T09:01:11.127Z,0.95
2018-01-29T09:03:38.654Z,0.93
2018-01-29T09:06:06.185Z,1.10
2018-01-29T09:08:33.684Z,1.00
2018-01-29T09:11:01.995Z,1.00
2018-01-29T09:13:29.509Z,0.95
2018-01-29T09:15:57.014Z,0.80
2018-01-29T09:18:24.536Z,0.90
2018-01-29T09:20:52.811Z,1.00
2018-01-29T09:23:20.347Z,1.00
2018-01-29T09:25:47.852Z,1.20
2018-01-29T09:28:18.932Z,0.90
2018-01-29T09:30:46.461Z,0.80
2018-01-29T09:33:14.083Z,0.80
2018-01-29T09:35:41.679Z,0.90
2018-01-29T09:38:09.314Z,0.88
2018-01-29T09:40:37.612Z,0.95
2018-01-29T09:43:05.899Z,1.10
2018-01-29T09:45:33.560Z,0.80
2018-01-29T09:48:04.134Z,0.80
2018-01-29T09:50:31.765Z,0.95
2018-01-29T09:52:59.303Z,0.80
2018-01-29T09:55:26.858Z,0.77
2018-01-29T09:57:54.387Z,0.80
2018-01-29T10:00:21.933Z,0.73
2018-01-29T10:02:49.482Z,0.80
2018-01-29T10:05:17.068Z,1.10
2018-01-29T10:07:44.612Z,0.80
2018-01-29T10:10:13.076Z,0.95
2018-01-29T10:12:40.616Z,0.80
2018-01-29T10:15:08.177Z,0.90
2018-01-29T10:17:35.717Z,0.80
2018-01-29T10:20:03.287Z,0.77
2018-01-29T10:22:31.570Z,1.23
2018-01-29T10:24:59.126Z,0.90
2018-01-29T10:27:27.423Z,0.80
2018-01-29T10:29:55.036Z,1.02
2018-01-29T10:32:23.412Z,0.77
2018-01-29T10:34:50.950Z,0.80
2018-01-29T10:37:18.470Z,0.90
2018-01-29T10:39:46.758Z,1.05
2018-01-29T10:42:14.319Z,0.95
2018-01-29T10:44:41.825Z,1.45
2018-01-29T10:47:09.367Z,1.30
2018-01-29T10:49:36.891Z,1.10
2018-01-29T10:52:05.180Z,1.17
2018-01-29T10:54:32.684Z,1.00
2018-01-29T10:57:00.305Z,1.20
2018-01-29T10:59:27.817Z,0.80
2018-01-29T11:02:01.068Z,1.00
2018-01-29T11:04:28.616Z,1.05
2018-01-29T11:06:56.158Z,1.00
2018-01-29T11:09:23.688Z,0.98
2018-01-29T11:11:51.262Z,1.00
2018-01-29T11:14:18.778Z,1.00
2018-01-29T11:16:46.294Z,1.02
2018-01-29T11:19:14.618Z,1.00
2018-01-29T11:21:42.235Z,0.95
2018-01-29T11:24:10.539Z,0.90
2018-01-29T11:26:38.133Z,1.00
2018-01-29T11:29:05.673Z,0.82
2018-01-29T11:31:33.223Z,0.98
2018-01-29T11:34:00.765Z,1.05
2018-01-29T11:36:28.310Z,0.85
2018-01-29T11:38:56.588Z,1.02
2018-01-29T11:41:24.899Z,1.00
2018-01-29T11:43:52.408Z,0.70
2018-01-29T11:46:19.910Z,1.20
2018-01-29T11:48:47.505Z,0.85
2018-01-29T11:51:15.008Z,1.00
2018-01-29T11:53:43.300Z,1.00
2018-01-29T11:56:11.594Z,0.90
2018-01-29T11:58:39.165Z,1.00
2018-01-29T12:01:06.680Z,1.05
2018-01-29T12:03:34.985Z,0.90
2018-01-29T12:06:02.512Z,0.70
2018-01-29T12:08:30.822Z,1.10
2018-01-29T12:10:58.332Z,0.80
2018-01-29T12:13:25.917Z,0.80
2018-01-29T12:15:54.209Z,1.08
2018-01-29T12:18:25.396Z,0.75
2018-01-29T12:20:52.916Z,0.90
2018-01-29T12:23:20.438Z,0.70
2018-01-29T12:25:48.041Z,1.00
2018-01-29T12:28:15.541Z,0.88
2018-01-29T12:30:43.052Z,0.80
2018-01-29T12:33:10.576Z,0.90
2018-01-29T12:35:38.082Z,0.85
2018-01-29T12:38:05.617Z,0.70
2018-01-29T12:40:33.885Z,0.90
2018-01-29T12:43:02.187Z,0.80
2018-01-29T12:45:29.723Z,0.90
2018-01-29T12:47:57.248Z,0.90
2018-01-29T12:50:24.762Z,0.85
2018-01-29T12:52:53.116Z,0.80
2018-01-29T12:55:20.678Z,0.70
2018-01-29T12:57:48.421Z,0.88
2018-01-29T13:00:15.967Z,0.75
2018-01-29T13:02:43.545Z,1.00
2018-01-29T13:05:11.110Z,0.80
2018-01-29T13:07:38.661Z,0.77
2018-01-29T13:10:06.213Z,0.73
2018-01-29T13:12:33.777Z,0.80
2018-01-29T13:15:01.409Z,0.70
2018-01-29T13:17:28.942Z,1.00
2018-01-29T13:19:57.985Z,1.10
2018-01-29T13:22:25.797Z,0.82
2018-01-29T13:24:53.383Z,0.90
2018-01-29T13:27:20.916Z,0.80
2018-01-29T13:29:49.388Z,0.75
2018-01-29T13:32:18.048Z,0.70
2018-01-29T13:34:45.548Z,0.70
2018-01-29T13:37:13.842Z,0.75
2018-01-29T13:39:41.361Z,0.77
2018-01-29T13:42:08.903Z,0.95
2018-01-29T13:44:36.962Z,0.70
2018-01-29T13:47:04.468Z,0.75
2018-01-29T13:49:32.004Z,0.80
2018-01-29T13:51:59.514Z,0.70
2018-01-29T13:54:27.042Z,0.70
2018-01-29T13:56:54.548Z,0.80
2018-01-29T13:59:22.075Z,0.88
2018-01-29T14:01:50.343Z,0.70
2018-01-29T14:04:17.855Z,0.70
2018-01-29T14:06:45.356Z,0.70
2018-01-29T14:09:12.882Z,0.80
2018-01-29T14:11:40.380Z,0.90
2018-01-29T14:14:07.872Z,0.70
2018-01-29T14:16:35.396Z,0.70
2018-01-29T14:19:02.893Z,0.65
2018-01-29T14:21:30.413Z,0.80
2018-01-29T14:23:58.002Z,0.62
2018-01-29T14:26:26.287Z,0.77
2018-01-29T14:28:54.704Z,0.80
2018-01-29T14:31:22.220Z,0.65
2018-01-29T14:33:50.505Z,1.05
2018-01-29T14:36:18.768Z,0.70
2018-01-29T14:38:47.048Z,0.85
2018-01-29T14:41:15.358Z,0.80
2018-01-29T14:43:42.877Z,0.77
2018-01-29T14:46:11.159Z,0.80
2018-01-29T14:48:43.322Z,0.70
2018-01-29T14:51:11.592Z,0.82
2018-01-29T14:53:39.122Z,0.65
2018-01-29T14:56:06.622Z,0.70
2018-01-29T14:58:36.720Z,0.80
2018-01-29T15:01:04.248Z,1.00
2018-01-29T15:03:31.744Z,0.80
2018-01-29T15:05:59.263Z,0.90
2018-01-29T15:08:36.995Z,1.15
2018-01-29T15:11:04.528Z,0.70
2018-01-29T15:13:32.065Z,0.80
2018-01-29T15:16:02.828Z,0.90
2018-01-29T15:18:37.352Z,0.80
2018-01-29T15:21:05.516Z,0.73
2018-01-29T15:23:33.065Z,0.75
2018-01-29T15:26:01.318Z,1.00
2018-01-29T15:28:30.513Z,0.60
2018-01-29T15:30:58.019Z,0.77
2018-01-29T15:33:32.965Z,0.90
2018-01-29T15:36:00.472Z,0.90
2018-01-29T15:38:28.777Z,1.10
2018-01-29T15:40:56.281Z,1.10
2018-01-29T15:43:23.808Z,1.15
2018-01-29T15:45:51.324Z,1.10
2018-01-29T15:48:23.644Z,0.80
2018-01-29T15:50:51.156Z,1.10
2018-01-29T15:53:19.433Z,1.30
2018-01-29T15:55:47.713Z,0.90
2018-01-29T15:58:23.291Z,1.45
2018-01-29T16:00:50.813Z,1.00
2018-01-29T16:03:19.085Z,1.17
2018-01-29T16:05:46.612Z,0.90
2018-01-29T16:08:14.105Z,1.05
2018-01-29T16:10:41.640Z,1.10
2018-01-29T16:13:09.187Z,0.80
2018-01-29T16:15:36.797Z,1.02
2018-01-29T16:18:05.078Z,1.10
2018-01-29T16:20:33.353Z,1.10
2018-01-29T16:23:01.661Z,1.33
2018-01-29T16:25:29.229Z,1.00
2018-01-29T16:27:56.762Z,1.40
2018-01-29T16:30:24.321Z,0.93
2018-01-29T16:32:52.598Z,0.90
2018-01-29T16:35:20.868Z,1.08
2018-01-29T16:37:49.131Z,0.90
2018-01-29T16:40:17.431Z,0.93
2018-01-29T16:42:44.933Z,0.90
2018-01-29T16:45:12.485Z,1.02
2018-01-29T16:47:40.019Z,1.10
2018-01-29T16:50:07.544Z,1.00
2018-01-29T16:52:35.048Z,0.90
2018-01-29T16:55:02.566Z,1.10
2018-01-29T16:57:30.085Z,1.00
2018-01-29T16:59:57.579Z,1.00
2018-01-29T17:02:25.136Z,1.12
2018-01-29T17:04:52.625Z,1.00
2018-01-29T17:07:20.150Z,1.15
2018-01-29T17:09:47.727Z,1.00
2018-01-29T17:12:15.297Z,1.17
2018-01-29T17:14:42.870Z,0.80
2018-01-29T17:17:10.484Z,0.90
2018-01-29T17:19:38.049Z,0.90
2018-01-29T17:22:05.579Z,0.98
2018-01-29T17:24:33.167Z,1.10
2018-01-29T17:27:03.541Z,1.37
2018-01-29T17:29:40.512Z,1.10
2018-01-29T17:32:08.352Z,1.10
2018-01-29T17:34:35.976Z,1.05
2018-01-29T17:37:03.632Z,1.10
2018-01-29T17:39:31.286Z,1.17
2018-01-29T17:41:58.881Z,1.40
2018-01-29T17:44:26.663Z,0.90
2018-01-29T17:46:54.553Z,1.10
2018-01-29T17:49:22.134Z,1.00
2018-01-29T17:51:49.690Z,1.20
2018-01-29T17:54:17.240Z,1.00
2018-01-29T17:56:45.582Z,1.00
2018-01-29T17:59:13.142Z,1.23
2018-01-29T18:01:40.768Z,1.08
2018-01-29T18:04:08.303Z,1.05
2018-01-29T18:06:35.879Z,1.23
2018-01-29T18:09:04.502Z,0.90
2018-01-29T18:11:32.067Z,1.00
2018-01-29T18:13:59.646Z,0.90
2018-01-29T18:16:27.221Z,1.05
2018-01-29T18:18:54.752Z,0.77
2018-01-29T18:21:22.290Z,0.85
2018-01-29T18:23:49.949Z,0.85
2018-01-29T18:26:17.493Z,2.12
2018-01-29T18:28:45.071Z,0.75
2018-01-29T18:31:12.604Z,0.77
2018-01-29T18:33:40.952Z,0.70
2018-01-29T18:36:08.513Z,0.85
2018-01-29T18:38:36.032Z,1.00
2018-01-29T18:41:03.630Z,0.90
2018-01-29T18:43:31.905Z,1.10
2018-01-29T18:45:59.426Z,1.12
2018-01-29T18:48:26.927Z,0.80
2018-01-29T18:50:54.468Z,1.30
2018-01-29T18:53:22.047Z,0.95
2018-01-29T18:55:49.608Z,1.00
2018-01-29T18:58:17.197Z,0.80
2018-01-29T19:00:44.766Z,0.90
2018-01-29T19:03:12.364Z,0.95
2018-01-29T19:05:39.978Z,1.10
2018-01-29T19:08:07.594Z,0.90
2018-01-29T19:10:36.285Z,0.90
2018-01-29T19:13:03.831Z,1.17
2018-01-29T19:15:31.353Z,0.80
2018-01-29T19:17:58.848Z,0.80
2018-01-29T19:20:27.128Z,0.75
2018-01-29T19:22:55.400Z,0.90
2018-01-29T19:25:22.949Z,0.93
2018-01-29T19:27:50.473Z,0.98
2018-01-29T19:30:18.118Z,0.90
2018-01-29T19:32:46.458Z,0.68
2018-01-29T19:35:16.199Z,1.10
2018-01-29T19:37:44.378Z,1.37
2018-01-29T19:40:14.065Z,1.00
2018-01-29T19:42:41.658Z,0.75
2018-01-29T19:45:09.566Z,0.80
2018-01-29T19:47:37.172Z,0.60
2018-01-29T19:50:08.665Z,0.80
2018-01-29T19:52:40.138Z,1.00
2018-01-29T19:55:20.853Z,0.70
2018-01-29T19:57:49.235Z,0.80
2018-01-29T20:00:16.810Z,1.00
2018-01-29T20:02:44.414Z,0.80
2018-01-29T20:05:12.744Z,0.60
2018-01-29T20:07:40.322Z,0.50
2018-01-29T20:10:07.844Z,0.50
2018-01-29T20:12:35.394Z,0.55
2018-01-29T20:15:02.930Z,0.50
2018-01-29T20:17:30.463Z,0.57
2018-01-29T20:19:58.804Z,0.60
2018-01-29T20:22:26.396Z,0.60
2018-01-29T20:24:53.928Z,0.60
2018-01-29T20:27:24.218Z,0.60
2018-01-29T20:29:51.790Z,0.60
2018-01-29T20:32:20.101Z,0.60
2018-01-29T20:34:48.614Z,0.50
2018-01-29T20:37:16.177Z,0.60
2018-01-29T20:39:43.706Z,0.60
2018-01-29T20:42:11.840Z,0.70
2018-01-29T20:44:40.225Z,0.50
2018-01-29T20:47:07.813Z,0.60
2018-01-29T20:49:35.405Z,0.60
2018-01-29T20:52:03.001Z,0.60
2018-01-29T20:54:30.607Z,0.60
2018-01-29T20:56:58.194Z,0.60
2018-01-29T20:59:25.789Z,0.60
2018-01-29T21:01:53.326Z,0.70
2018-01-29T21:04:20.885Z,0.52
2018-01-29T21:06:49.184Z,0.75
2018-01-29T21:09:17.728Z,0.70
2018-01-29T21:11:45.273Z,0.60
2018-01-29T21:14:12.818Z,0.68
2018-01-29T21:16:40.368Z,1.33
2018-01-29T21:19:07.876Z,0.60
2018-01-29T21:21:35.423Z,0.77
2018-01-29T21:24:04.258Z,0.73
2018-01-29T21:29:03.538Z,0.70
2018-01-29T21:31:31.305Z,0.70
2018-01-29T21:33:58.821Z,0.60
2018-01-29T21:36:27.132Z,0.70
2018-01-29T21:38:54.752Z,0.60
2018-01-29T21:41:22.573Z,0.50
2018-01-29T21:43:50.174Z,0.70
2018-01-29T21:46:17.746Z,0.60
2018-01-29T21:48:45.316Z,0.60
2018-01-29T21:51:12.891Z,0.70
2018-01-29T21:53:40.441Z,0.50
2018-01-29T21:56:07.957Z,0.70
2018-01-29T21:58:35.549Z,0.60
2018-01-29T22:01:03.874Z,0.80
2018-01-29T22:03:31.405Z,0.85
2018-01-29T22:05:59.783Z,0.70
2018-01-29T22:08:27.288Z,0.70
2018-01-29T22:10:55.568Z,0.80
2018-01-29T22:16:17.884Z,0.70
2018-01-29T22:18:45.389Z,0.70
2018-01-29T22:21:12.951Z,0.82
2018-01-29T22:23:40.465Z,0.80
2018-01-29T22:26:08.037Z,0.75
2018-01-29T22:28:35.565Z,0.75
2018-01-29T22:31:03.105Z,0.80
2018-01-29T22:33:33.546Z,1.00
2018-01-29T22:36:01.051Z,0.70
2018-01-29T22:38:28.573Z,0.88
2018-01-29T22:40:56.090Z,0.70
2018-01-29T22:43:24.415Z,0.90
2018-01-29T22:45:57.027Z,0.70
2018-01-29T22:48:25.411Z,1.35
2018-01-29T22:50:52.907Z,0.70
2018-01-29T22:53:20.428Z,0.70
2018-01-29T22:55:47.961Z,0.62
2018-01-29T22:58:15.493Z,0.60
2018-01-29T23:00:43.017Z,0.70
2018-01-29T23:03:10.526Z,0.60
2018-01-29T23:05:38.036Z,0.80
2018-01-29T23:08:06.312Z,0.60
2018-01-29T23:10:34.613Z,0.80
2018-01-29T23:13:02.168Z,0.80
2018-01-29T23:15:30.430Z,0.80
2018-01-29T23:17:58.733Z,0.60
2018-01-29T23:20:29.621Z,0.65
2018-01-29T23:22:57.150Z,0.80
2018-01-29T23:25:24.694Z,0.80
2018-01-29T23:27:53.021Z,0.70
2018-01-29T23:30:20.519Z,0.70
2018-01-29T23:32:48.819Z,0.70
2018-01-29T23:35:17.094Z,0.60
2018-01-29T23:37:44.608Z,0.80
2018-01-29T23:40:12.154Z,0.80
2018-01-29T23:42:39.671Z,0.90
2018-01-29T23:45:07.975Z,0.60
2018-01-29T23:47:35.477Z,0.73
2018-01-29T23:50:03.774Z,0.60
2018-01-29T23:52:31.277Z,1.20
2018-01-29T23:54:58.812Z,0.80
2018-01-29T23:57:26.311Z,0.82
2018-01-29T23:59:53.830Z,0.70
